Main page
METAR-TAF:

METAR-TAF

Airports :

Newton City/County Airport

Newton, Kansas, United States

latitude: 38-03N, longitude: 097-17W, elevation: 1532 ft

Current weather observation

The report was made 41 minutes ago, at 22:56 UTC
Wind 22 mph from the South/Southwest
Temperature 99°F
Humidity 35%
Pressure 29.82 in. Hg
Visibility: 10 miles
Clear sky

METAR: KEWK 242256Z AUTO 20019KT 10SM CLR 37/19 A2982 RMK AO2 PK WND 20027/2240 SLP076 T03670189

Time: 18:37 (23:37 UTC)


TAF: missing

Weather observations and forecasts of more than 4000 airports (METAR and TAF reports).

The available stations are represented by yellow and red dots on the map.

Hover mouse over dot to see the name of the station.

Then click to see weather observations and forecasts.

To change the map : click on the green buttons with a black cross to zoom in, on the green button with a dash to zoom out, or on the green arrows for adjacent maps.


METAR-TAF: